首页
METAR-TAF:

METAR-TAF

机场 :

Port Hardy, 不列颠哥伦比亚, 加拿大

纬度: 50-41N, 经度: 127-22W, 海拔: 22米

当前天气观测

该预报发布于20分钟前的16:47 UTC
风速5节,风向西
温度 15°C
湿度 82%
气压 1024 hPa
能見度: 32.2公里
少量云层高于1800英尺
多云层高于5500英尺
阴天层高于7600英尺

METAR: CYZT 081647Z 26005KT 20SM FEW018 BKN055 OVC076 15/12 A3025 RMK SC2SC4AC2 SLP247

时间: 10:07 (17:07 UTC)

预报

该预报发布于4小时和24分钟前的12:43 UTC
预报有效从08日的 13点(UTC)到 09日的 01点(UTC)
风速3节,风向多变
能見度: 10公里
散云层高于2000英尺
阴天层高于6000英尺
短暂存在
从 08日的 13点(UTC)到 08日的 20点(UTC)
能見度: 10公里
多云层高于2000英尺
小雨
几率 30%
从 08日的 13点(UTC)到 08日的 17点(UTC)
能見度: 1.6公里
多云层高于500英尺
小毛毛雨, 轻雾
从 08日的 2000点(UTC)
风速8节,风向北转西北
能見度: 10公里
少量云层高于3000英尺
多云层高于6000英尺

TAF: CYZT 081243Z 0813/0901 VRB03KT P6SM SCT020 OVC060 TEMPO 0813/0820 P6SM -RA BKN020 PROB30 0813/0817 1SM -DZ BR BKN005 FM082000 34008KT P6SM FEW030 BKN060 RMK NXT FCST BY 081900Z

超过4000个机场的气象观测和天气预报(METAR&TAF报告)。

可查询的气象台以黄色和红色小点在地图上表示。

将鼠标移到小点上方,可查看气象台名称。

然后点击查看天气观测和预报。

如需切换地图:点击带黑十字的绿色按钮放大地图;点击带横线的绿色按钮缩小地图;或者点击绿色箭头查看邻近地区的地图。


METAR-TAF: